createdAt,value
2022-11-30T00:02:05.501Z,8.86
2022-11-30T00:06:09.163Z,8.83
2022-11-30T00:10:11.064Z,8.81
2022-11-30T00:14:12.609Z,8.79
2022-11-30T00:18:16.829Z,8.75
2022-11-30T00:22:18.380Z,8.73
2022-11-30T00:26:22.900Z,8.71
2022-11-30T00:30:24.669Z,8.72
2022-11-30T00:34:26.414Z,8.73
2022-11-30T00:38:28.960Z,8.72
2022-11-30T00:42:30.599Z,8.71
2022-11-30T00:46:32.438Z,8.70
2022-11-30T00:50:34.069Z,8.66
2022-11-30T00:54:35.938Z,8.67
2022-11-30T00:58:37.524Z,8.69
2022-11-30T01:02:39.172Z,8.70
2022-11-30T01:06:40.863Z,8.71
2022-11-30T01:10:44.244Z,8.72
2022-11-30T01:14:46.167Z,8.74
2022-11-30T01:18:48.264Z,8.77
2022-11-30T01:22:49.831Z,8.79
2022-11-30T01:26:51.393Z,8.81
2022-11-30T01:31:03.997Z,8.84
2022-11-30T01:35:06.196Z,8.84
2022-11-30T01:39:09.532Z,8.86
2022-11-30T01:43:11.983Z,8.86
2022-11-30T01:47:13.769Z,8.82
2022-11-30T01:51:15.479Z,8.81
2022-11-30T01:55:32.569Z,8.83
2022-11-30T01:59:34.402Z,8.84
2022-11-30T02:03:52.860Z,8.83
2022-11-30T02:07:55.374Z,8.82
2022-11-30T02:11:57.432Z,8.81
2022-11-30T02:16:15.502Z,8.79
2022-11-30T02:20:39.133Z,8.78
2022-11-30T02:24:43.707Z,8.75
2022-11-30T02:29:06.739Z,8.77
2022-11-30T02:33:21.365Z,8.74
2022-11-30T02:37:25.691Z,8.75
2022-11-30T02:41:27.378Z,8.76
2022-11-30T02:45:53.835Z,8.72
2022-11-30T02:50:11.642Z,8.72
2022-11-30T02:54:13.243Z,8.71
2022-11-30T02:58:17.402Z,8.72
2022-11-30T03:02:19.292Z,8.69
2022-11-30T03:06:21.071Z,8.67
2022-11-30T03:10:22.698Z,8.66
2022-11-30T03:14:24.253Z,8.66
2022-11-30T03:18:25.798Z,8.68
2022-11-30T03:22:27.366Z,8.67
2022-11-30T03:26:28.973Z,8.67
2022-11-30T03:30:30.532Z,8.67
2022-11-30T03:34:32.182Z,8.71
2022-11-30T03:38:34.929Z,8.71
2022-11-30T03:42:36.580Z,8.70
2022-11-30T03:46:38.263Z,8.66
2022-11-30T03:50:39.858Z,8.69
2022-11-30T03:54:41.467Z,8.66
2022-11-30T03:58:43.290Z,8.65
2022-11-30T04:02:47.701Z,8.62
2022-11-30T04:06:49.329Z,8.59
2022-11-30T04:10:52.753Z,8.55
2022-11-30T04:14:54.309Z,8.54
2022-11-30T04:18:55.872Z,8.54
2022-11-30T04:22:58.534Z,8.51
2022-11-30T04:27:00.062Z,8.51
2022-11-30T04:31:02.921Z,8.51
2022-11-30T04:35:05.035Z,8.52
2022-11-30T04:39:06.583Z,8.54
2022-11-30T04:43:09.209Z,8.52
2022-11-30T04:47:10.758Z,8.52
2022-11-30T04:51:12.375Z,8.53
2022-11-30T04:55:14.018Z,8.51
2022-11-30T04:59:15.655Z,8.53
2022-11-30T05:03:17.223Z,8.54
2022-11-30T05:07:18.918Z,8.57
2022-11-30T05:11:20.606Z,8.56
2022-11-30T05:15:22.941Z,8.56
2022-11-30T05:19:24.495Z,8.55
2022-11-30T05:23:26.048Z,8.50
2022-11-30T05:27:27.787Z,8.49
2022-11-30T05:31:29.579Z,8.47
2022-11-30T05:35:31.345Z,8.51
2022-11-30T05:39:33.100Z,8.52
2022-11-30T05:43:34.714Z,8.49
2022-11-30T05:47:36.304Z,8.49
2022-11-30T05:51:40.206Z,8.52
2022-11-30T05:55:42.237Z,8.53
2022-11-30T05:59:44.010Z,8.53
2022-11-30T06:03:45.744Z,8.52
2022-11-30T06:07:47.358Z,8.57
2022-11-30T06:11:48.961Z,8.59
2022-11-30T06:15:50.511Z,8.59
2022-11-30T06:19:52.100Z,8.59
2022-11-30T06:23:53.830Z,8.62
2022-11-30T06:27:55.409Z,8.65
2022-11-30T06:31:57.091Z,8.62
2022-11-30T06:35:58.859Z,8.64
2022-11-30T06:40:08.247Z,8.64
2022-11-30T06:44:10.844Z,8.63
2022-11-30T06:48:13.266Z,8.63
2022-11-30T06:52:15.196Z,8.64
2022-11-30T06:56:16.836Z,8.65
2022-11-30T07:00:19.223Z,8.65
2022-11-30T07:04:20.894Z,8.66
2022-11-30T07:08:22.636Z,8.69
2022-11-30T07:12:25.145Z,8.70
2022-11-30T07:16:26.762Z,8.74
2022-11-30T07:20:28.569Z,8.79
2022-11-30T07:24:49.341Z,8.83
2022-11-30T07:28:55.380Z,8.88
2022-11-30T07:32:57.198Z,8.92
2022-11-30T07:36:58.805Z,8.95
2022-11-30T07:41:00.354Z,8.99
2022-11-30T07:45:03.213Z,9.04
2022-11-30T07:49:06.956Z,9.07
2022-11-30T07:53:08.504Z,9.09
2022-11-30T07:57:10.087Z,9.08
2022-11-30T08:01:15.813Z,9.13
2022-11-30T08:05:17.565Z,9.17
2022-11-30T08:09:20.867Z,9.18
2022-11-30T08:13:22.694Z,9.20
2022-11-30T08:17:24.440Z,9.23
2022-11-30T08:21:26.344Z,9.28
2022-11-30T08:25:29.126Z,9.31
2022-11-30T08:29:30.699Z,9.35
2022-11-30T08:33:32.969Z,9.33
2022-11-30T08:37:38.020Z,9.36
2022-11-30T08:41:39.586Z,9.40
2022-11-30T08:45:41.201Z,9.50
2022-11-30T08:49:42.803Z,9.64
2022-11-30T08:53:45.216Z,9.71
2022-11-30T08:57:46.847Z,9.77
2022-11-30T09:01:48.441Z,9.79
2022-11-30T09:05:49.997Z,9.78
2022-11-30T09:09:53.198Z,9.79
2022-11-30T09:13:56.837Z,9.81
2022-11-30T09:17:58.765Z,9.85
2022-11-30T09:22:00.604Z,9.82
2022-11-30T09:26:04.440Z,9.83
2022-11-30T09:30:07.176Z,9.85
2022-11-30T09:34:11.559Z,9.82
2022-11-30T09:38:13.170Z,9.79
2022-11-30T09:42:52.198Z,9.83
2022-11-30T09:47:19.903Z,9.96
2022-11-30T09:51:31.196Z,10.09
2022-11-30T09:55:43.850Z,10.11
2022-11-30T09:59:59.825Z,10.10
2022-11-30T10:04:02.396Z,10.09
2022-11-30T10:08:13.072Z,10.16
2022-11-30T10:12:49.044Z,10.23
2022-11-30T10:17:06.113Z,10.29
2022-11-30T10:21:17.382Z,10.27
2022-11-30T10:25:32.963Z,10.33
2022-11-30T10:29:38.658Z,10.41
2022-11-30T10:33:49.184Z,10.55
2022-11-30T10:37:53.275Z,10.75
2022-11-30T10:42:01.005Z,10.90
2022-11-30T10:46:02.643Z,10.94
2022-11-30T10:50:06.005Z,10.90
2022-11-30T10:54:29.768Z,10.94
2022-11-30T10:58:56.710Z,10.91
2022-11-30T11:02:58.589Z,10.88
2022-11-30T11:07:10.472Z,10.79
2022-11-30T11:11:34.560Z,10.78
2022-11-30T11:15:36.608Z,10.79
2022-11-30T11:19:41.667Z,10.82
2022-11-30T11:23:45.354Z,10.85
2022-11-30T11:27:56.024Z,10.86
2022-11-30T11:32:19.550Z,10.76
2022-11-30T11:36:32.546Z,10.68
2022-11-30T11:40:34.191Z,10.68
2022-11-30T11:44:36.083Z,10.75
2022-11-30T11:48:46.153Z,10.81
2022-11-30T11:52:47.816Z,10.85
2022-11-30T11:56:49.839Z,10.97
2022-11-30T12:01:05.747Z,11.06
2022-11-30T12:05:27.199Z,11.17
2022-11-30T12:09:34.981Z,11.22
2022-11-30T12:13:42.579Z,11.31
2022-11-30T12:18:17.048Z,11.26
2022-11-30T12:22:51.453Z,11.25
2022-11-30T12:27:24.879Z,11.47
2022-11-30T12:31:50.797Z,11.67
2022-11-30T12:36:07.775Z,11.85
2022-11-30T12:40:18.639Z,11.88
2022-11-30T12:44:41.636Z,11.87
2022-11-30T12:49:07.023Z,11.88
2022-11-30T12:53:18.276Z,11.89
2022-11-30T12:57:27.540Z,11.88
2022-11-30T13:01:42.641Z,11.92
2022-11-30T13:05:51.631Z,11.89
2022-11-30T13:10:06.880Z,11.90
2022-11-30T13:14:23.330Z,11.84
2022-11-30T13:18:25.418Z,11.76
2022-11-30T13:22:42.235Z,11.68
2022-11-30T13:26:48.068Z,11.62
2022-11-30T13:31:07.961Z,11.54
2022-11-30T13:35:28.024Z,11.34
2022-11-30T13:39:51.265Z,11.27
2022-11-30T13:43:52.980Z,11.21
2022-11-30T13:47:58.851Z,11.22
2022-11-30T13:52:22.135Z,11.12
2022-11-30T13:56:45.790Z,10.98
2022-11-30T14:01:25.491Z,10.87
2022-11-30T14:05:32.518Z,10.75
2022-11-30T14:09:42.852Z,10.66
2022-11-30T14:13:45.105Z,10.60
2022-11-30T14:17:46.863Z,10.57
2022-11-30T14:21:49.104Z,10.52
2022-11-30T14:25:56.736Z,10.41
2022-11-30T14:30:02.083Z,10.37
2022-11-30T14:34:14.353Z,10.37
2022-11-30T14:38:27.031Z,10.31
2022-11-30T14:42:31.284Z,10.24
2022-11-30T14:46:35.222Z,10.19
2022-11-30T14:50:42.670Z,10.14
2022-11-30T14:54:56.545Z,10.12
2022-11-30T14:59:20.452Z,10.11
2022-11-30T15:03:27.764Z,10.10
2022-11-30T15:07:29.941Z,10.02
2022-11-30T15:11:31.838Z,9.99
2022-11-30T15:15:37.347Z,9.94
2022-11-30T15:19:47.398Z,9.94
2022-11-30T15:23:51.491Z,9.92
2022-11-30T15:27:53.429Z,9.87
2022-11-30T15:31:56.996Z,9.85
2022-11-30T15:36:31.351Z,9.82
2022-11-30T15:40:39.250Z,9.79
2022-11-30T15:44:45.277Z,9.75
2022-11-30T15:48:49.299Z,9.72
2022-11-30T15:52:52.267Z,9.70
2022-11-30T15:56:57.273Z,9.68
2022-11-30T16:01:06.599Z,9.66
2022-11-30T16:05:14.435Z,9.70
2022-11-30T16:09:32.473Z,9.72
2022-11-30T16:13:34.354Z,9.70
2022-11-30T16:17:35.909Z,9.72
2022-11-30T16:21:37.592Z,9.69
2022-11-30T16:25:39.196Z,9.67
2022-11-30T16:29:40.751Z,9.62
2022-11-30T16:33:42.510Z,9.55
2022-11-30T16:37:44.182Z,9.54
2022-11-30T16:41:45.891Z,9.51
2022-11-30T16:45:50.956Z,9.49
2022-11-30T16:49:52.693Z,9.46
2022-11-30T16:53:55.307Z,9.44
2022-11-30T16:57:56.925Z,9.38
2022-11-30T17:01:58.624Z,9.35
2022-11-30T17:06:00.279Z,9.34
2022-11-30T17:10:02.728Z,9.34
2022-11-30T17:14:04.844Z,9.30
2022-11-30T17:18:06.737Z,9.25
2022-11-30T17:22:08.404Z,9.20
2022-11-30T17:26:13.362Z,9.17
2022-11-30T17:30:17.319Z,9.16
2022-11-30T17:34:18.864Z,9.13
2022-11-30T17:38:20.467Z,9.10
2022-11-30T17:42:22.541Z,9.07
2022-11-30T17:46:24.577Z,9.04
2022-11-30T17:50:26.203Z,9.00
2022-11-30T17:54:28.180Z,8.97
2022-11-30T17:58:34.626Z,8.93
2022-11-30T18:02:37.903Z,8.86
2022-11-30T18:06:39.987Z,8.82
2022-11-30T18:10:43.841Z,8.78
2022-11-30T18:14:45.943Z,8.75
2022-11-30T18:18:48.692Z,8.73
2022-11-30T18:22:50.959Z,8.69
2022-11-30T18:26:53.655Z,8.68
2022-11-30T18:30:55.288Z,8.64
2022-11-30T18:34:56.968Z,8.60
2022-11-30T18:38:58.901Z,8.58
2022-11-30T18:43:00.473Z,8.56
2022-11-30T18:47:02.100Z,8.53
2022-11-30T18:51:16.369Z,8.48
2022-11-30T18:55:17.988Z,8.41
2022-11-30T18:59:19.765Z,8.32
2022-11-30T19:03:21.455Z,8.29
2022-11-30T19:07:23.215Z,8.28
2022-11-30T19:11:25.888Z,8.31
2022-11-30T19:15:27.893Z,8.31
2022-11-30T19:19:29.471Z,8.31
2022-11-30T19:23:31.186Z,8.29
2022-11-30T19:27:32.932Z,8.32
2022-11-30T19:31:34.592Z,8.33
2022-11-30T19:35:36.354Z,8.33
2022-11-30T19:39:38.011Z,8.32
2022-11-30T19:43:40.250Z,8.32
2022-11-30T19:47:42.186Z,8.34
2022-11-30T19:51:43.833Z,8.36
2022-11-30T19:55:45.458Z,8.38
2022-11-30T19:59:47.113Z,8.40
2022-11-30T20:03:52.032Z,8.39
2022-11-30T20:07:53.752Z,8.37
2022-11-30T20:11:57.377Z,8.34
2022-11-30T20:15:59.072Z,8.35
2022-11-30T20:20:00.663Z,8.38
2022-11-30T20:24:05.426Z,8.39
2022-11-30T20:28:12.283Z,8.41
2022-11-30T20:32:14.284Z,8.42
2022-11-30T20:36:17.149Z,8.42
2022-11-30T20:40:18.967Z,8.44
2022-11-30T20:44:20.707Z,8.44
2022-11-30T20:48:22.400Z,8.43
2022-11-30T20:52:29.988Z,8.44
2022-11-30T20:56:32.878Z,8.46
2022-11-30T21:00:35.626Z,8.45
2022-11-30T21:04:37.295Z,8.42
2022-11-30T21:08:40.010Z,8.42
2022-11-30T21:12:42.206Z,8.38
2022-11-30T21:16:43.979Z,8.32
2022-11-30T21:20:45.606Z,8.33
2022-11-30T21:24:49.714Z,8.33
2022-11-30T21:28:53.888Z,8.33
2022-11-30T21:33:07.752Z,8.36
2022-11-30T21:37:09.548Z,8.35
2022-11-30T21:41:12.754Z,8.36
2022-11-30T21:45:14.562Z,8.35
2022-11-30T21:49:16.890Z,8.34
2022-11-30T21:53:18.454Z,8.35
2022-11-30T21:57:21.860Z,8.33
2022-11-30T22:01:28.170Z,8.29
2022-11-30T22:05:29.755Z,8.29
2022-11-30T22:09:31.438Z,8.27
2022-11-30T22:13:33.947Z,8.25
2022-11-30T22:17:35.524Z,8.21
2022-11-30T22:21:37.452Z,8.15
2022-11-30T22:25:39.130Z,8.06
2022-11-30T22:29:40.693Z,8.01
2022-11-30T22:33:43.331Z,7.97
2022-11-30T22:37:44.917Z,7.94
2022-11-30T22:41:53.057Z,7.85
2022-11-30T22:46:09.491Z,7.78
2022-11-30T22:50:11.688Z,7.67
2022-11-30T22:54:13.331Z,7.64
2022-11-30T22:58:14.957Z,7.53
2022-11-30T23:02:16.626Z,7.45
2022-11-30T23:06:19.968Z,7.36
2022-11-30T23:10:21.576Z,7.31
2022-11-30T23:14:23.147Z,7.31
2022-11-30T23:18:24.971Z,7.26
2022-11-30T23:22:26.651Z,7.16
2022-11-30T23:26:34.084Z,7.15
2022-11-30T23:30:35.650Z,7.07
2022-11-30T23:34:37.368Z,7.08
2022-11-30T23:38:39.048Z,7.07
2022-11-30T23:42:40.702Z,7.10
2022-11-30T23:46:42.430Z,7.04
2022-11-30T23:50:44.501Z,7.00
2022-11-30T23:54:46.503Z,6.97
2022-11-30T23:58:48.287Z,6.89
